sensor_id;sensor_type;location;lat;lon;timestamp;P1;durP1;ratioP1;P2;durP2;ratioP2
5890;SDS011;2971;52.420;7.080;2023-07-31T00:02:17;3.80;;;3.47;;
5890;SDS011;2971;52.420;7.080;2023-07-31T00:04:42;4.20;;;3.60;;
5890;SDS011;2971;52.420;7.080;2023-07-31T00:07:08;4.07;;;3.20;;
5890;SDS011;2971;52.420;7.080;2023-07-31T00:09:33;3.60;;;3.30;;
5890;SDS011;2971;52.420;7.080;2023-07-31T00:11:59;3.73;;;3.40;;
5890;SDS011;2971;52.420;7.080;2023-07-31T00:14:24;3.67;;;3.37;;
5890;SDS011;2971;52.420;7.080;2023-07-31T00:16:50;3.97;;;3.33;;
5890;SDS011;2971;52.420;7.080;2023-07-31T00:19:15;5.70;;;3.73;;
5890;SDS011;2971;52.420;7.080;2023-07-31T00:21:41;4.53;;;3.70;;
5890;SDS011;2971;52.420;7.080;2023-07-31T00:24:06;4.17;;;3.47;;
5890;SDS011;2971;52.420;7.080;2023-07-31T00:26:31;3.60;;;3.30;;
5890;SDS011;2971;52.420;7.080;2023-07-31T00:28:57;3.93;;;3.27;;
5890;SDS011;2971;52.420;7.080;2023-07-31T00:31:23;3.97;;;3.10;;
5890;SDS011;2971;52.420;7.080;2023-07-31T00:33:48;4.87;;;3.73;;
5890;SDS011;2971;52.420;7.080;2023-07-31T00:36:13;3.63;;;3.23;;
5890;SDS011;2971;52.420;7.080;2023-07-31T00:38:39;3.60;;;3.20;;
5890;SDS011;2971;52.420;7.080;2023-07-31T00:41:04;3.77;;;3.23;;
5890;SDS011;2971;52.420;7.080;2023-07-31T00:43:30;3.80;;;3.40;;
5890;SDS011;2971;52.420;7.080;2023-07-31T00:45:55;3.90;;;3.47;;
5890;SDS011;2971;52.420;7.080;2023-07-31T00:48:20;4.47;;;3.90;;
5890;SDS011;2971;52.420;7.080;2023-07-31T00:50:46;4.43;;;4.03;;
5890;SDS011;2971;52.420;7.080;2023-07-31T00:53:12;4.53;;;3.90;;
5890;SDS011;2971;52.420;7.080;2023-07-31T00:55:38;5.33;;;3.80;;
5890;SDS011;2971;52.420;7.080;2023-07-31T00:58:04;4.47;;;4.07;;
5890;SDS011;2971;52.420;7.080;2023-07-31T01:00:29;4.60;;;4.20;;
5890;SDS011;2971;52.420;7.080;2023-07-31T01:02:54;3.90;;;3.60;;
5890;SDS011;2971;52.420;7.080;2023-07-31T01:05:25;5.03;;;4.20;;
5890;SDS011;2971;52.420;7.080;2023-07-31T01:08:06;4.53;;;4.13;;
5890;SDS011;2971;52.420;7.080;2023-07-31T01:10:41;4.57;;;4.17;;
5890;SDS011;2971;52.420;7.080;2023-07-31T01:13:15;4.60;;;4.20;;
5890;SDS011;2971;52.420;7.080;2023-07-31T01:15:40;4.57;;;4.17;;
5890;SDS011;2971;52.420;7.080;2023-07-31T01:18:05;5.00;;;4.60;;
5890;SDS011;2971;52.420;7.080;2023-07-31T01:20:31;4.80;;;4.27;;
5890;SDS011;2971;52.420;7.080;2023-07-31T01:30:59;4.70;;;4.30;;
5890;SDS011;2971;52.420;7.080;2023-07-31T01:33:25;5.60;;;4.30;;
5890;SDS011;2971;52.420;7.080;2023-07-31T01:35:51;4.60;;;4.20;;
5890;SDS011;2971;52.420;7.080;2023-07-31T01:38:20;4.00;;;3.70;;
5890;SDS011;2971;52.420;7.080;2023-07-31T01:40:49;3.90;;;3.60;;
5890;SDS011;2971;52.420;7.080;2023-07-31T01:43:16;3.63;;;3.30;;
5890;SDS011;2971;52.420;7.080;2023-07-31T01:45:41;3.37;;;3.10;;
5890;SDS011;2971;52.420;7.080;2023-07-31T01:48:07;3.03;;;2.60;;
5890;SDS011;2971;52.420;7.080;2023-07-31T01:50:32;2.83;;;2.60;;
5890;SDS011;2971;52.420;7.080;2023-07-31T01:52:57;3.27;;;2.67;;
5890;SDS011;2971;52.420;7.080;2023-07-31T01:55:23;2.57;;;2.37;;
5890;SDS011;2971;52.420;7.080;2023-07-31T01:57:48;3.73;;;2.33;;
5890;SDS011;2971;52.420;7.080;2023-07-31T02:00:14;2.90;;;2.50;;
5890;SDS011;2971;52.420;7.080;2023-07-31T02:02:39;2.50;;;2.30;;
5890;SDS011;2971;52.420;7.080;2023-07-31T02:05:05;2.30;;;2.10;;
5890;SDS011;2971;52.420;7.080;2023-07-31T02:07:30;2.20;;;2.10;;
5890;SDS011;2971;52.420;7.080;2023-07-31T02:09:56;2.60;;;2.10;;
5890;SDS011;2971;52.420;7.080;2023-07-31T02:12:21;2.87;;;2.10;;
5890;SDS011;2971;52.420;7.080;2023-07-31T02:14:47;2.17;;;1.83;;
5890;SDS011;2971;52.420;7.080;2023-07-31T02:17:12;2.00;;;1.80;;
5890;SDS011;2971;52.420;7.080;2023-07-31T02:19:38;1.80;;;1.70;;
5890;SDS011;2971;52.420;7.080;2023-07-31T02:22:03;2.23;;;1.80;;
5890;SDS011;2971;52.420;7.080;2023-07-31T02:24:29;1.83;;;1.70;;
5890;SDS011;2971;52.420;7.080;2023-07-31T02:26:54;2.07;;;1.80;;
5890;SDS011;2971;52.420;7.080;2023-07-31T02:29:19;1.80;;;1.70;;
5890;SDS011;2971;52.420;7.080;2023-07-31T02:31:45;2.30;;;1.70;;
5890;SDS011;2971;52.420;7.080;2023-07-31T02:34:10;2.20;;;1.80;;
5890;SDS011;2971;52.420;7.080;2023-07-31T02:36:36;1.80;;;1.70;;
5890;SDS011;2971;52.420;7.080;2023-07-31T02:39:01;1.60;;;1.50;;
5890;SDS011;2971;52.420;7.080;2023-07-31T02:41:27;2.13;;;1.40;;
5890;SDS011;2971;52.420;7.080;2023-07-31T02:43:52;2.43;;;1.57;;
5890;SDS011;2971;52.420;7.080;2023-07-31T02:46:18;2.90;;;1.90;;
5890;SDS011;2971;52.420;7.080;2023-07-31T02:48:44;1.90;;;1.80;;
5890;SDS011;2971;52.420;7.080;2023-07-31T02:51:09;1.90;;;1.70;;
5890;SDS011;2971;52.420;7.080;2023-07-31T02:53:35;2.47;;;2.00;;
5890;SDS011;2971;52.420;7.080;2023-07-31T02:56:00;2.50;;;2.10;;
5890;SDS011;2971;52.420;7.080;2023-07-31T02:58:25;2.00;;;1.90;;
5890;SDS011;2971;52.420;7.080;2023-07-31T03:00:51;2.67;;;1.90;;
5890;SDS011;2971;52.420;7.080;2023-07-31T03:03:16;2.10;;;1.90;;
5890;SDS011;2971;52.420;7.080;2023-07-31T03:05:42;2.70;;;2.07;;
5890;SDS011;2971;52.420;7.080;2023-07-31T03:08:07;2.33;;;1.80;;
5890;SDS011;2971;52.420;7.080;2023-07-31T03:10:33;1.90;;;1.80;;
5890;SDS011;2971;52.420;7.080;2023-07-31T03:12:58;2.10;;;1.90;;
5890;SDS011;2971;52.420;7.080;2023-07-31T03:15:23;2.17;;;1.97;;
5890;SDS011;2971;52.420;7.080;2023-07-31T03:17:49;2.07;;;1.83;;
5890;SDS011;2971;52.420;7.080;2023-07-31T03:20:14;2.30;;;2.07;;
5890;SDS011;2971;52.420;7.080;2023-07-31T03:22:40;2.57;;;2.00;;
5890;SDS011;2971;52.420;7.080;2023-07-31T03:25:05;3.97;;;2.33;;
5890;SDS011;2971;52.420;7.080;2023-07-31T03:27:31;4.37;;;2.23;;
5890;SDS011;2971;52.420;7.080;2023-07-31T03:29:56;3.07;;;2.70;;
5890;SDS011;2971;52.420;7.080;2023-07-31T03:32:22;3.33;;;2.93;;
5890;SDS011;2971;52.420;7.080;2023-07-31T03:34:47;3.57;;;2.90;;
5890;SDS011;2971;52.420;7.080;2023-07-31T03:37:13;4.27;;;3.27;;
5890;SDS011;2971;52.420;7.080;2023-07-31T03:39:38;4.13;;;3.60;;
5890;SDS011;2971;52.420;7.080;2023-07-31T03:42:04;4.83;;;3.80;;
5890;SDS011;2971;52.420;7.080;2023-07-31T03:44:29;4.20;;;3.80;;
5890;SDS011;2971;52.420;7.080;2023-07-31T03:46:55;4.50;;;3.97;;
5890;SDS011;2971;52.420;7.080;2023-07-31T03:49:20;5.17;;;3.57;;
5890;SDS011;2971;52.420;7.080;2023-07-31T03:51:45;7.03;;;4.30;;
5890;SDS011;2971;52.420;7.080;2023-07-31T03:54:11;5.87;;;4.00;;
5890;SDS011;2971;52.420;7.080;2023-07-31T03:56:38;4.87;;;3.90;;
5890;SDS011;2971;52.420;7.080;2023-07-31T03:59:03;6.20;;;4.33;;
5890;SDS011;2971;52.420;7.080;2023-07-31T04:01:29;6.23;;;4.37;;
5890;SDS011;2971;52.420;7.080;2023-07-31T04:03:54;7.13;;;4.80;;
5890;SDS011;2971;52.420;7.080;2023-07-31T04:06:20;5.53;;;4.53;;
5890;SDS011;2971;52.420;7.080;2023-07-31T04:08:45;6.67;;;4.70;;
5890;SDS011;2971;52.420;7.080;2023-07-31T04:11:11;9.17;;;5.30;;
5890;SDS011;2971;52.420;7.080;2023-07-31T04:13:37;6.53;;;5.00;;
5890;SDS011;2971;52.420;7.080;2023-07-31T04:16:03;5.47;;;4.47;;
5890;SDS011;2971;52.420;7.080;2023-07-31T04:18:28;6.77;;;5.30;;
5890;SDS011;2971;52.420;7.080;2023-07-31T04:20:56;6.63;;;5.73;;
5890;SDS011;2971;52.420;7.080;2023-07-31T04:23:21;13.03;;;7.37;;
5890;SDS011;2971;52.420;7.080;2023-07-31T04:25:47;13.67;;;8.60;;
5890;SDS011;2971;52.420;7.080;2023-07-31T04:28:12;14.40;;;10.00;;
5890;SDS011;2971;52.420;7.080;2023-07-31T04:30:38;17.07;;;10.33;;
5890;SDS011;2971;52.420;7.080;2023-07-31T04:33:04;17.80;;;9.90;;
5890;SDS011;2971;52.420;7.080;2023-07-31T04:35:29;19.97;;;11.00;;
5890;SDS011;2971;52.420;7.080;2023-07-31T04:37:54;24.13;;;12.47;;
5890;SDS011;2971;52.420;7.080;2023-07-31T04:40:20;23.43;;;12.67;;
5890;SDS011;2971;52.420;7.080;2023-07-31T04:42:46;22.00;;;13.20;;
5890;SDS011;2971;52.420;7.080;2023-07-31T04:45:12;23.57;;;12.93;;
5890;SDS011;2971;52.420;7.080;2023-07-31T04:47:37;25.40;;;14.77;;
5890;SDS011;2971;52.420;7.080;2023-07-31T04:50:03;27.70;;;14.93;;
5890;SDS011;2971;52.420;7.080;2023-07-31T04:52:28;27.90;;;14.70;;
5890;SDS011;2971;52.420;7.080;2023-07-31T04:54:53;28.00;;;14.97;;
5890;SDS011;2971;52.420;7.080;2023-07-31T04:57:19;29.03;;;16.70;;
5890;SDS011;2971;52.420;7.080;2023-07-31T04:59:44;31.33;;;17.77;;
5890;SDS011;2971;52.420;7.080;2023-07-31T05:02:11;32.80;;;17.73;;
5890;SDS011;2971;52.420;7.080;2023-07-31T05:04:37;33.43;;;17.80;;
5890;SDS011;2971;52.420;7.080;2023-07-31T05:07:02;32.10;;;19.23;;
5890;SDS011;2971;52.420;7.080;2023-07-31T05:09:28;41.30;;;20.60;;
5890;SDS011;2971;52.420;7.080;2023-07-31T05:11:53;38.67;;;19.50;;
5890;SDS011;2971;52.420;7.080;2023-07-31T05:14:18;34.53;;;20.30;;
5890;SDS011;2971;52.420;7.080;2023-07-31T05:16:45;43.20;;;20.50;;
5890;SDS011;2971;52.420;7.080;2023-07-31T05:19:10;39.43;;;20.33;;
5890;SDS011;2971;52.420;7.080;2023-07-31T05:21:36;35.60;;;19.73;;
5890;SDS011;2971;52.420;7.080;2023-07-31T05:24:01;39.17;;;20.13;;
5890;SDS011;2971;52.420;7.080;2023-07-31T05:26:27;42.50;;;21.20;;
5890;SDS011;2971;52.420;7.080;2023-07-31T05:28:52;40.27;;;21.47;;
5890;SDS011;2971;52.420;7.080;2023-07-31T05:31:17;35.90;;;19.53;;
5890;SDS011;2971;52.420;7.080;2023-07-31T05:33:43;37.83;;;19.20;;
5890;SDS011;2971;52.420;7.080;2023-07-31T05:36:09;35.13;;;18.60;;
5890;SDS011;2971;52.420;7.080;2023-07-31T05:38:34;32.70;;;18.47;;
5890;SDS011;2971;52.420;7.080;2023-07-31T05:40:59;33.80;;;19.23;;
5890;SDS011;2971;52.420;7.080;2023-07-31T05:43:25;34.17;;;18.30;;
5890;SDS011;2971;52.420;7.080;2023-07-31T05:45:50;32.70;;;17.70;;
5890;SDS011;2971;52.420;7.080;2023-07-31T05:48:16;32.20;;;17.17;;
5890;SDS011;2971;52.420;7.080;2023-07-31T05:50:42;29.83;;;16.67;;
5890;SDS011;2971;52.420;7.080;2023-07-31T05:53:08;29.47;;;17.03;;
5890;SDS011;2971;52.420;7.080;2023-07-31T05:55:35;32.30;;;16.23;;
5890;SDS011;2971;52.420;7.080;2023-07-31T05:58:00;30.50;;;16.13;;
5890;SDS011;2971;52.420;7.080;2023-07-31T06:00:26;29.93;;;15.90;;
5890;SDS011;2971;52.420;7.080;2023-07-31T06:02:52;30.40;;;14.80;;
5890;SDS011;2971;52.420;7.080;2023-07-31T06:05:18;29.67;;;14.67;;
5890;SDS011;2971;52.420;7.080;2023-07-31T06:07:44;29.10;;;15.13;;
5890;SDS011;2971;52.420;7.080;2023-07-31T06:10:09;25.80;;;14.27;;
5890;SDS011;2971;52.420;7.080;2023-07-31T06:12:35;29.90;;;13.77;;
5890;SDS011;2971;52.420;7.080;2023-07-31T06:15:01;27.10;;;14.53;;
5890;SDS011;2971;52.420;7.080;2023-07-31T06:17:27;25.23;;;13.57;;
5890;SDS011;2971;52.420;7.080;2023-07-31T06:19:53;25.27;;;13.67;;
5890;SDS011;2971;52.420;7.080;2023-07-31T06:22:18;30.30;;;13.57;;
5890;SDS011;2971;52.420;7.080;2023-07-31T06:24:44;29.63;;;13.20;;
5890;SDS011;2971;52.420;7.080;2023-07-31T06:27:10;22.57;;;12.33;;
5890;SDS011;2971;52.420;7.080;2023-07-31T06:29:35;22.83;;;12.37;;
5890;SDS011;2971;52.420;7.080;2023-07-31T06:32:01;24.63;;;12.37;;
5890;SDS011;2971;52.420;7.080;2023-07-31T06:34:27;22.73;;;12.33;;
5890;SDS011;2971;52.420;7.080;2023-07-31T06:36:52;22.73;;;11.97;;
5890;SDS011;2971;52.420;7.080;2023-07-31T06:39:17;19.50;;;11.23;;
5890;SDS011;2971;52.420;7.080;2023-07-31T06:41:43;24.73;;;12.43;;
5890;SDS011;2971;52.420;7.080;2023-07-31T06:44:09;24.90;;;11.83;;
5890;SDS011;2971;52.420;7.080;2023-07-31T06:46:34;24.63;;;11.93;;
5890;SDS011;2971;52.420;7.080;2023-07-31T06:49:00;22.83;;;11.97;;
5890;SDS011;2971;52.420;7.080;2023-07-31T06:51:25;21.57;;;11.60;;
5890;SDS011;2971;52.420;7.080;2023-07-31T06:53:51;25.07;;;12.13;;
5890;SDS011;2971;52.420;7.080;2023-07-31T06:56:16;20.50;;;10.93;;
5890;SDS011;2971;52.420;7.080;2023-07-31T06:58:42;27.53;;;11.47;;
5890;SDS011;2971;52.420;7.080;2023-07-31T07:01:08;18.67;;;10.67;;
5890;SDS011;2971;52.420;7.080;2023-07-31T07:03:33;20.57;;;10.80;;
5890;SDS011;2971;52.420;7.080;2023-07-31T07:05:59;21.07;;;11.03;;
5890;SDS011;2971;52.420;7.080;2023-07-31T07:08:24;19.40;;;10.17;;
5890;SDS011;2971;52.420;7.080;2023-07-31T07:10:50;20.67;;;9.90;;
5890;SDS011;2971;52.420;7.080;2023-07-31T07:13:15;19.40;;;10.10;;
5890;SDS011;2971;52.420;7.080;2023-07-31T07:15:43;16.60;;;9.90;;
5890;SDS011;2971;52.420;7.080;2023-07-31T07:18:08;14.07;;;9.20;;
5890;SDS011;2971;52.420;7.080;2023-07-31T07:20:35;19.20;;;9.47;;
5890;SDS011;2971;52.420;7.080;2023-07-31T07:23:01;16.83;;;9.27;;
5890;SDS011;2971;52.420;7.080;2023-07-31T07:25:26;13.83;;;8.10;;
5890;SDS011;2971;52.420;7.080;2023-07-31T07:27:52;13.40;;;8.00;;
5890;SDS011;2971;52.420;7.080;2023-07-31T07:30:18;16.37;;;8.43;;
5890;SDS011;2971;52.420;7.080;2023-07-31T07:32:44;13.70;;;8.23;;
5890;SDS011;2971;52.420;7.080;2023-07-31T07:35:10;15.07;;;8.20;;
5890;SDS011;2971;52.420;7.080;2023-07-31T07:37:35;11.57;;;7.07;;
5890;SDS011;2971;52.420;7.080;2023-07-31T07:40:01;12.10;;;6.97;;
5890;SDS011;2971;52.420;7.080;2023-07-31T07:42:26;11.53;;;6.90;;
5890;SDS011;2971;52.420;7.080;2023-07-31T07:44:51;10.27;;;6.40;;
5890;SDS011;2971;52.420;7.080;2023-07-31T07:47:17;9.90;;;6.47;;
5890;SDS011;2971;52.420;7.080;2023-07-31T07:49:42;10.97;;;6.97;;
5890;SDS011;2971;52.420;7.080;2023-07-31T07:52:08;9.73;;;6.07;;
5890;SDS011;2971;52.420;7.080;2023-07-31T07:54:33;10.20;;;6.60;;
5890;SDS011;2971;52.420;7.080;2023-07-31T07:56:59;10.20;;;6.30;;
5890;SDS011;2971;52.420;7.080;2023-07-31T07:59:24;10.07;;;6.10;;
5890;SDS011;2971;52.420;7.080;2023-07-31T08:01:50;8.87;;;6.00;;
5890;SDS011;2971;52.420;7.080;2023-07-31T08:04:15;8.07;;;5.97;;
5890;SDS011;2971;52.420;7.080;2023-07-31T08:06:40;9.67;;;6.13;;
5890;SDS011;2971;52.420;7.080;2023-07-31T08:09:06;10.27;;;6.23;;
5890;SDS011;2971;52.420;7.080;2023-07-31T08:11:32;8.87;;;5.73;;
5890;SDS011;2971;52.420;7.080;2023-07-31T08:13:58;10.13;;;5.87;;
5890;SDS011;2971;52.420;7.080;2023-07-31T08:16:24;10.83;;;5.43;;
5890;SDS011;2971;52.420;7.080;2023-07-31T08:18:49;7.00;;;4.70;;
5890;SDS011;2971;52.420;7.080;2023-07-31T08:21:14;10.03;;;5.03;;
5890;SDS011;2971;52.420;7.080;2023-07-31T08:23:40;6.33;;;4.33;;
5890;SDS011;2971;52.420;7.080;2023-07-31T08:26:05;6.53;;;4.20;;
5890;SDS011;2971;52.420;7.080;2023-07-31T08:28:31;5.90;;;3.80;;
5890;SDS011;2971;52.420;7.080;2023-07-31T08:30:56;4.87;;;3.30;;
5890;SDS011;2971;52.420;7.080;2023-07-31T08:33:22;5.67;;;3.10;;
5890;SDS011;2971;52.420;7.080;2023-07-31T08:35:47;3.40;;;3.07;;
5890;SDS011;2971;52.420;7.080;2023-07-31T08:38:13;5.70;;;3.10;;
5890;SDS011;2971;52.420;7.080;2023-07-31T08:40:38;3.03;;;2.70;;
5890;SDS011;2971;52.420;7.080;2023-07-31T08:43:04;3.43;;;2.80;;
5890;SDS011;2971;52.420;7.080;2023-07-31T08:45:29;4.23;;;2.90;;
5890;SDS011;2971;52.420;7.080;2023-07-31T08:47:55;3.73;;;3.00;;
5890;SDS011;2971;52.420;7.080;2023-07-31T08:50:22;3.63;;;3.00;;
5890;SDS011;2971;52.420;7.080;2023-07-31T08:52:48;3.33;;;2.40;;
5890;SDS011;2971;52.420;7.080;2023-07-31T08:55:14;2.90;;;2.20;;
5890;SDS011;2971;52.420;7.080;2023-07-31T08:57:40;2.80;;;2.00;;
5890;SDS011;2971;52.420;7.080;2023-07-31T09:00:07;2.97;;;2.17;;
5890;SDS011;2971;52.420;7.080;2023-07-31T09:05:11;2.53;;;1.80;;
5890;SDS011;2971;52.420;7.080;2023-07-31T09:07:37;1.87;;;1.73;;
5890;SDS011;2971;52.420;7.080;2023-07-31T09:10:03;3.60;;;2.10;;
5890;SDS011;2971;52.420;7.080;2023-07-31T09:12:29;1.87;;;1.67;;
5890;SDS011;2971;52.420;7.080;2023-07-31T09:14:56;2.10;;;1.80;;
5890;SDS011;2971;52.420;7.080;2023-07-31T09:19:57;4.20;;;1.93;;
5890;SDS011;2971;52.420;7.080;2023-07-31T09:22:32;2.10;;;1.80;;
5890;SDS011;2971;52.420;7.080;2023-07-31T09:30:12;2.90;;;1.60;;
5890;SDS011;2971;52.420;7.080;2023-07-31T09:32:39;1.83;;;1.70;;
5890;SDS011;2971;52.420;7.080;2023-07-31T09:37:39;2.77;;;1.70;;
5890;SDS011;2971;52.420;7.080;2023-07-31T09:40:05;1.50;;;1.40;;
5890;SDS011;2971;52.420;7.080;2023-07-31T09:42:31;2.00;;;1.80;;
5890;SDS011;2971;52.420;7.080;2023-07-31T09:45:06;1.60;;;1.50;;
5890;SDS011;2971;52.420;7.080;2023-07-31T09:47:33;1.87;;;1.40;;
5890;SDS011;2971;52.420;7.080;2023-07-31T09:49:59;1.60;;;1.40;;
5890;SDS011;2971;52.420;7.080;2023-07-31T09:52:25;1.67;;;1.57;;
5890;SDS011;2971;52.420;7.080;2023-07-31T09:54:52;2.03;;;1.60;;
5890;SDS011;2971;52.420;7.080;2023-07-31T09:57:17;1.60;;;1.50;;
5890;SDS011;2971;52.420;7.080;2023-07-31T09:59:45;1.60;;;1.50;;
5890;SDS011;2971;52.420;7.080;2023-07-31T10:02:14;1.80;;;1.70;;
5890;SDS011;2971;52.420;7.080;2023-07-31T10:04:40;1.67;;;1.57;;
5890;SDS011;2971;52.420;7.080;2023-07-31T10:07:07;1.77;;;1.67;;
5890;SDS011;2971;52.420;7.080;2023-07-31T10:09:32;1.70;;;1.60;;
5890;SDS011;2971;52.420;7.080;2023-07-31T10:12:02;1.70;;;1.60;;
5890;SDS011;2971;52.420;7.080;2023-07-31T10:14:34;1.90;;;1.80;;
5890;SDS011;2971;52.420;7.080;2023-07-31T10:16:59;1.63;;;1.53;;
5890;SDS011;2971;52.420;7.080;2023-07-31T10:19:26;1.70;;;1.60;;
5890;SDS011;2971;52.420;7.080;2023-07-31T10:21:51;2.93;;;2.57;;
5890;SDS011;2971;52.420;7.080;2023-07-31T10:24:17;1.93;;;1.83;;
5890;SDS011;2971;52.420;7.080;2023-07-31T10:26:43;2.10;;;1.90;;
5890;SDS011;2971;52.420;7.080;2023-07-31T10:29:10;2.30;;;2.10;;
5890;SDS011;2971;52.420;7.080;2023-07-31T10:31:36;2.57;;;2.13;;
5890;SDS011;2971;52.420;7.080;2023-07-31T10:34:02;2.50;;;2.30;;
5890;SDS011;2971;52.420;7.080;2023-07-31T10:36:28;2.90;;;2.37;;
5890;SDS011;2971;52.420;7.080;2023-07-31T10:38:55;3.03;;;2.50;;
5890;SDS011;2971;52.420;7.080;2023-07-31T10:41:27;2.70;;;2.50;;
5890;SDS011;2971;52.420;7.080;2023-07-31T10:43:56;2.50;;;2.30;;
5890;SDS011;2971;52.420;7.080;2023-07-31T10:46:25;3.10;;;2.80;;
5890;SDS011;2971;52.420;7.080;2023-07-31T10:48:59;2.70;;;2.50;;
5890;SDS011;2971;52.420;7.080;2023-07-31T10:51:32;3.10;;;2.30;;
5890;SDS011;2971;52.420;7.080;2023-07-31T10:54:12;2.70;;;2.50;;
5890;SDS011;2971;52.420;7.080;2023-07-31T10:56:40;2.67;;;2.47;;
5890;SDS011;2971;52.420;7.080;2023-07-31T10:59:05;2.70;;;2.50;;
5890;SDS011;2971;52.420;7.080;2023-07-31T11:01:49;2.60;;;2.40;;
5890;SDS011;2971;52.420;7.080;2023-07-31T11:04:15;2.80;;;2.60;;
5890;SDS011;2971;52.420;7.080;2023-07-31T11:06:57;3.30;;;2.67;;
5890;SDS011;2971;52.420;7.080;2023-07-31T11:09:24;2.90;;;2.70;;
5890;SDS011;2971;52.420;7.080;2023-07-31T11:11:50;3.10;;;2.90;;
5890;SDS011;2971;52.420;7.080;2023-07-31T11:14:17;3.00;;;2.80;;
5890;SDS011;2971;52.420;7.080;2023-07-31T11:16:42;3.30;;;3.10;;
5890;SDS011;2971;52.420;7.080;2023-07-31T11:19:08;3.67;;;3.10;;
5890;SDS011;2971;52.420;7.080;2023-07-31T11:21:34;3.60;;;3.30;;
5890;SDS011;2971;52.420;7.080;2023-07-31T11:23:59;3.77;;;3.23;;
5890;SDS011;2971;52.420;7.080;2023-07-31T11:26:25;3.50;;;3.20;;
5890;SDS011;2971;52.420;7.080;2023-07-31T11:28:50;4.00;;;3.60;;
5890;SDS011;2971;52.420;7.080;2023-07-31T11:31:17;4.40;;;4.00;;
5890;SDS011;2971;52.420;7.080;2023-07-31T11:33:43;4.30;;;4.00;;
5890;SDS011;2971;52.420;7.080;2023-07-31T11:36:15;4.20;;;3.90;;
5890;SDS011;2971;52.420;7.080;2023-07-31T11:38:41;4.97;;;4.57;;
5890;SDS011;2971;52.420;7.080;2023-07-31T11:41:07;5.50;;;5.00;;
5890;SDS011;2971;52.420;7.080;2023-07-31T11:43:32;4.60;;;4.30;;
5890;SDS011;2971;52.420;7.080;2023-07-31T11:45:58;5.70;;;5.20;;
5890;SDS011;2971;52.420;7.080;2023-07-31T11:48:29;5.70;;;5.20;;
5890;SDS011;2971;52.420;7.080;2023-07-31T11:50:59;5.40;;;4.90;;
5890;SDS011;2971;52.420;7.080;2023-07-31T11:56:02;6.70;;;6.20;;
5890;SDS011;2971;52.420;7.080;2023-07-31T11:58:31;6.63;;;6.03;;
5890;SDS011;2971;52.420;7.080;2023-07-31T12:00:58;7.20;;;6.60;;
5890;SDS011;2971;52.420;7.080;2023-07-31T12:03:24;7.77;;;7.07;;
5890;SDS011;2971;52.420;7.080;2023-07-31T12:05:50;8.03;;;7.23;;
5890;SDS011;2971;52.420;7.080;2023-07-31T12:08:15;7.73;;;7.03;;
5890;SDS011;2971;52.420;7.080;2023-07-31T12:10:41;9.23;;;8.37;;
5890;SDS011;2971;52.420;7.080;2023-07-31T12:13:11;8.30;;;7.60;;
5890;SDS011;2971;52.420;7.080;2023-07-31T12:15:43;8.73;;;7.83;;
5890;SDS011;2971;52.420;7.080;2023-07-31T12:18:10;9.03;;;8.23;;
5890;SDS011;2971;52.420;7.080;2023-07-31T12:20:43;9.53;;;8.73;;
5890;SDS011;2971;52.420;7.080;2023-07-31T12:23:45;9.17;;;8.30;;
5890;SDS011;2971;52.420;7.080;2023-07-31T12:26:10;9.93;;;9.03;;
5890;SDS011;2971;52.420;7.080;2023-07-31T12:28:44;10.20;;;9.20;;
5890;SDS011;2971;52.420;7.080;2023-07-31T12:31:14;10.30;;;9.40;;
5890;SDS011;2971;52.420;7.080;2023-07-31T12:33:42;10.90;;;9.90;;
5890;SDS011;2971;52.420;7.080;2023-07-31T12:36:08;11.03;;;9.87;;
5890;SDS011;2971;52.420;7.080;2023-07-31T12:38:37;10.20;;;9.20;;
5890;SDS011;2971;52.420;7.080;2023-07-31T12:41:03;10.10;;;9.20;;
5890;SDS011;2971;52.420;7.080;2023-07-31T12:43:29;10.00;;;8.87;;
5890;SDS011;2971;52.420;7.080;2023-07-31T12:45:54;10.13;;;8.90;;
5890;SDS011;2971;52.420;7.080;2023-07-31T12:48:21;9.30;;;8.40;;
5890;SDS011;2971;52.420;7.080;2023-07-31T12:50:46;9.17;;;8.27;;
5890;SDS011;2971;52.420;7.080;2023-07-31T12:53:12;8.60;;;7.73;;
5890;SDS011;2971;52.420;7.080;2023-07-31T12:55:37;8.00;;;7.20;;
5890;SDS011;2971;52.420;7.080;2023-07-31T12:58:03;7.60;;;6.80;;
5890;SDS011;2971;52.420;7.080;2023-07-31T13:00:28;7.40;;;6.80;;
5890;SDS011;2971;52.420;7.080;2023-07-31T13:02:54;7.40;;;6.33;;
5890;SDS011;2971;52.420;7.080;2023-07-31T13:05:19;7.20;;;6.50;;
5890;SDS011;2971;52.420;7.080;2023-07-31T13:07:45;7.20;;;6.60;;
5890;SDS011;2971;52.420;7.080;2023-07-31T13:10:11;7.77;;;6.90;;
5890;SDS011;2971;52.420;7.080;2023-07-31T13:12:36;7.27;;;6.57;;
5890;SDS011;2971;52.420;7.080;2023-07-31T13:15:02;8.30;;;7.57;;
5890;SDS011;2971;52.420;7.080;2023-07-31T13:17:31;8.83;;;7.93;;
5890;SDS011;2971;52.420;7.080;2023-07-31T13:19:56;10.27;;;9.23;;
5890;SDS011;2971;52.420;7.080;2023-07-31T13:22:22;10.60;;;9.53;;
5890;SDS011;2971;52.420;7.080;2023-07-31T13:24:47;9.93;;;9.13;;
5890;SDS011;2971;52.420;7.080;2023-07-31T13:27:13;11.57;;;10.33;;
5890;SDS011;2971;52.420;7.080;2023-07-31T13:29:41;10.43;;;9.33;;
5890;SDS011;2971;52.420;7.080;2023-07-31T13:32:07;10.37;;;9.27;;
5890;SDS011;2971;52.420;7.080;2023-07-31T13:34:32;10.67;;;9.53;;
5890;SDS011;2971;52.420;7.080;2023-07-31T13:36:58;10.43;;;9.53;;
5890;SDS011;2971;52.420;7.080;2023-07-31T13:39:24;10.20;;;9.20;;
5890;SDS011;2971;52.420;7.080;2023-07-31T13:41:49;10.43;;;9.20;;
5890;SDS011;2971;52.420;7.080;2023-07-31T13:44:14;10.67;;;9.63;;
5890;SDS011;2971;52.420;7.080;2023-07-31T13:46:40;10.83;;;9.83;;
5890;SDS011;2971;52.420;7.080;2023-07-31T13:49:05;11.20;;;10.20;;
5890;SDS011;2971;52.420;7.080;2023-07-31T13:51:31;11.43;;;10.33;;
5890;SDS011;2971;52.420;7.080;2023-07-31T13:53:56;11.80;;;10.43;;
5890;SDS011;2971;52.420;7.080;2023-07-31T13:56:21;10.57;;;9.50;;
5890;SDS011;2971;52.420;7.080;2023-07-31T13:58:47;10.70;;;8.87;;
5890;SDS011;2971;52.420;7.080;2023-07-31T14:01:12;10.63;;;8.87;;
5890;SDS011;2971;52.420;7.080;2023-07-31T14:03:38;9.23;;;8.37;;
5890;SDS011;2971;52.420;7.080;2023-07-31T14:06:03;9.27;;;8.47;;
5890;SDS011;2971;52.420;7.080;2023-07-31T14:08:29;10.30;;;8.80;;
5890;SDS011;2971;52.420;7.080;2023-07-31T14:10:55;10.63;;;8.63;;
5890;SDS011;2971;52.420;7.080;2023-07-31T14:13:21;9.83;;;8.70;;
5890;SDS011;2971;52.420;7.080;2023-07-31T14:15:46;10.27;;;8.13;;
5890;SDS011;2971;52.420;7.080;2023-07-31T14:18:11;9.80;;;8.53;;
5890;SDS011;2971;52.420;7.080;2023-07-31T14:20:37;8.53;;;7.67;;
5890;SDS011;2971;52.420;7.080;2023-07-31T14:23:02;10.23;;;7.57;;
5890;SDS011;2971;52.420;7.080;2023-07-31T14:25:28;7.57;;;6.83;;
5890;SDS011;2971;52.420;7.080;2023-07-31T14:27:54;8.50;;;6.70;;
5890;SDS011;2971;52.420;7.080;2023-07-31T14:30:19;7.40;;;6.70;;
5890;SDS011;2971;52.420;7.080;2023-07-31T14:32:45;7.00;;;6.30;;
5890;SDS011;2971;52.420;7.080;2023-07-31T14:35:11;8.30;;;6.90;;
5890;SDS011;2971;52.420;7.080;2023-07-31T14:37:37;7.10;;;6.50;;
5890;SDS011;2971;52.420;7.080;2023-07-31T14:40:04;7.60;;;6.57;;
5890;SDS011;2971;52.420;7.080;2023-07-31T14:42:29;7.53;;;6.83;;
5890;SDS011;2971;52.420;7.080;2023-07-31T14:44:55;7.40;;;6.70;;
5890;SDS011;2971;52.420;7.080;2023-07-31T14:47:20;7.47;;;6.77;;
5890;SDS011;2971;52.420;7.080;2023-07-31T14:49:46;6.93;;;6.23;;
5890;SDS011;2971;52.420;7.080;2023-07-31T14:52:11;8.03;;;7.23;;
5890;SDS011;2971;52.420;7.080;2023-07-31T14:54:36;7.70;;;7.00;;
5890;SDS011;2971;52.420;7.080;2023-07-31T14:57:02;7.83;;;7.03;;
5890;SDS011;2971;52.420;7.080;2023-07-31T14:59:28;7.83;;;7.10;;
5890;SDS011;2971;52.420;7.080;2023-07-31T15:01:53;7.97;;;7.10;;
5890;SDS011;2971;52.420;7.080;2023-07-31T15:04:18;7.80;;;7.00;;
5890;SDS011;2971;52.420;7.080;2023-07-31T15:06:44;8.33;;;7.47;;
5890;SDS011;2971;52.420;7.080;2023-07-31T15:09:09;8.83;;;7.47;;
5890;SDS011;2971;52.420;7.080;2023-07-31T15:11:35;9.23;;;7.57;;
5890;SDS011;2971;52.420;7.080;2023-07-31T15:14:00;8.30;;;7.50;;
5890;SDS011;2971;52.420;7.080;2023-07-31T15:16:25;10.27;;;9.30;;
5890;SDS011;2971;52.420;7.080;2023-07-31T15:18:51;9.67;;;6.90;;
5890;SDS011;2971;52.420;7.080;2023-07-31T15:21:16;7.57;;;6.90;;
5890;SDS011;2971;52.420;7.080;2023-07-31T15:23:42;7.63;;;6.93;;
5890;SDS011;2971;52.420;7.080;2023-07-31T15:26:07;9.17;;;7.63;;